Meteorología y climatología de Navarra
Datos de la estación - Meteo Navarra

Estación de Erremendia (Salazar) GN

Altitud 1047 m.


Datos desde el 10/10/2019 hasta el 11/10/2019 en horario solar
Los datos son PROVISIONALES

Anterior Página 1 de 1 Siguiente Descargar: Formato para Excel 2000 o superior   Formato csv   Formato para OpenOffice Calc
Fecha Temperatura Humedad relativa Radiación global Insolación Precipitación Vel. viento 10 m Vel. viento 10 m Dir. viento 10 m
ºC % W/m² s l/m² m/s km/h º
10/10/2019 0:00 0.7 96 0.0 0 0.0 0.5 1.7 112
10/10/2019 0:10 1.2 97 0.0 0 0.0 1.2 4.4 49
10/10/2019 0:20 1.1 97 0.0 0 0.0 0.2 0.7 156
10/10/2019 0:30 1.1 97 0.0 0 0.0 0.1 0.3 100
10/10/2019 0:40 0.8 97 0.0 0 0.0 0.5 1.7 74
10/10/2019 0:50 0.4 96 0.0 0 0.0 0.1 0.3 77
10/10/2019 1:00 -0.1 96 0.0 0 0.0 0.2 0.7 63
10/10/2019 1:10 -0.3 96 0.0 0 0.0 0.6 2.1 290
10/10/2019 1:20 -0.3 97 0.0 0 0.0 0.1 0.4 151
10/10/2019 1:30 -0.4 97 0.0 0 0.0 0.1 0.3 44
10/10/2019 1:40 -0.3 97 0.0 0 0.0 0.2 0.7 56
10/10/2019 1:50 0.4 97 0.0 0 0.0 0.7 2.3 63
10/10/2019 2:00 1.1 98 0.0 0 0.0 0.6 2.1 92
10/10/2019 2:10 1.7 98 0.0 0 0.0 0.1 0.4 22
10/10/2019 2:20 2.2 98 0.0 0 0.0 0.2 0.7 140
10/10/2019 2:30 2.6 98 0.0 0 0.0 0.2 0.6 159
10/10/2019 2:40 3.1 98 0.0 0 0.0 0.3 1.1 93
10/10/2019 2:50 3.3 98 0.0 0 0.0 0.3 1.1 259
10/10/2019 3:00 3.0 98 0.0 0 0.0 0.6 2.1 282
10/10/2019 3:10 2.5 97 0.0 0 0.0 0.2 0.7 189
10/10/2019 3:20 2.1 97 0.0 0 0.0 0.6 2.1 68
10/10/2019 3:30 2.4 98 0.0 0 0.0 0.6 2.1 158
10/10/2019 3:40 2.4 98 0.0 0 0.0 0.6 2.3 255
10/10/2019 3:50 2.4 98 0.0 0 0.0 0.5 1.8 210
10/10/2019 4:00 1.9 98 0.0 0 0.0 0.8 2.9 230
10/10/2019 4:10 1.9 98 0.0 0 0.0 0.5 1.9 215
10/10/2019 4:20 1.6 98 0.0 0 0.0 0.4 1.4 246
10/10/2019 4:30 1.2 97 0.0 0 0.0 1.2 4.2 204
10/10/2019 4:40 2.1 98 0.0 0 0.0 1.2 4.5 234
10/10/2019 4:50 2.5 98 0.0 0 0.0 0.4 1.4 256
10/10/2019 5:00 2.0 98 0.0 0 0.0 0.7 2.7 214
10/10/2019 5:10 1.6 98 0.0 0 0.0 0.9 3.3 220
10/10/2019 5:20 1.7 98 0.0 0 0.0 1.0 3.5 221
10/10/2019 5:30 1.4 98 0.0 0 0.0 0.7 2.4 224
10/10/2019 5:40 0.9 98 0.0 0 0.0 0.3 1.1 206
10/10/2019 5:50 0.5 98 0.0 0 0.0 0.2 0.8 261
10/10/2019 6:00 0.0 97 0.0 0 0.0 0.5 1.7 118
10/10/2019 6:10 0.3 98 0.0 0 0.0 0.1 0.3 3
10/10/2019 6:20 -0.1 98 0.0 0 0.0 0.0 0.1 192
10/10/2019 6:30 -0.3 98 10.1 0 0.0 0.0 0.1 20
10/10/2019 6:40 -0.4 98 43.0 462 0.0 0.1 0.5 40
10/10/2019 6:50 -0.2 98 67.6 600 0.0 0.3 1.0 288
10/10/2019 7:00 0.2 98 97.8 600 0.0 0.0 0.1 225
10/10/2019 7:10 1.2 98 146.9 600 0.0 0.2 0.6 60
10/10/2019 7:20 3.4 98 168.0 600 0.0 0.1 0.5 226
10/10/2019 7:30 5.1 98 193.5 600 0.0 0.8 2.8 228
10/10/2019 7:40 6.0 98 227.4 600 0.0 0.8 2.7 227
10/10/2019 7:50 7.0 98 260.0 600 0.0 0.9 3.2 271
10/10/2019 8:00 7.6 93 292.3 600 0.0 1.0 3.7 267
10/10/2019 8:10 8.4 87 321.4 600 0.0 1.1 3.9 277
10/10/2019 8:20 9.0 84 346.7 600 0.0 1.4 4.9 281
10/10/2019 8:30 9.7 81 374.9 600 0.0 1.4 5.1 280
10/10/2019 8:40 10.2 79 401.9 600 0.0 1.1 4.0 276
10/10/2019 8:50 10.8 74 428.1 600 0.0 1.2 4.2 275
10/10/2019 9:00 11.2 71 455.1 600 0.0 1.4 5.2 266
10/10/2019 9:10 11.5 68 481.1 600 0.0 1.0 3.6 267
10/10/2019 9:20 11.9 67 506.1 600 0.0 1.4 4.9 288
10/10/2019 9:30 12.0 64 529.0 600 0.0 1.4 5.0 330
10/10/2019 9:40 12.2 63 551.7 600 0.0 1.4 5.0 303
10/10/2019 9:50 12.7 59 573.3 600 0.0 1.4 4.9 304
10/10/2019 10:00 13.0 59 593.1 600 0.0 1.8 6.6 280
10/10/2019 10:10 13.4 58 608.2 600 0.0 1.1 3.8 283
10/10/2019 10:20 13.9 56 623.8 600 0.0 1.3 4.6 268
10/10/2019 10:30 14.0 55 636.7 600 0.0 1.4 4.9 262
10/10/2019 10:40 14.3 54 647.3 600 0.0 1.0 3.6 271
10/10/2019 10:50 14.6 53 657.8 600 0.0 1.7 6.0 239
10/10/2019 11:00 14.7 52 667.3 600 0.0 1.3 4.5 280
10/10/2019 11:10 14.6 50 673.9 600 0.0 0.9 3.2 354
10/10/2019 11:20 14.7 51 681.8 600 0.0 1.8 6.5 311
10/10/2019 11:30 15.3 51 689.7 600 0.0 1.6 5.9 317
10/10/2019 11:40 15.2 52 695.3 600 0.0 1.9 6.8 308
10/10/2019 11:50 15.0 52 699.9 600 0.0 1.9 6.7 333
10/10/2019 12:00 15.3 53 701.9 600 0.0 1.8 6.6 315
10/10/2019 12:10 15.7 52 702.2 600 0.0 2.0 7.2 309
10/10/2019 12:20 15.8 52 699.5 600 0.0 1.9 6.9 309
10/10/2019 12:30 15.9 52 693.5 600 0.0 1.8 6.4 304
10/10/2019 12:40 16.1 51 686.0 600 0.0 2.2 7.8 291
10/10/2019 12:50 16.2 50 677.7 600 0.0 1.9 6.8 301
10/10/2019 13:00 16.7 48 668.3 600 0.0 2.1 7.7 301
10/10/2019 13:10 16.3 48 656.8 600 0.0 1.6 5.6 316
10/10/2019 13:20 16.9 48 643.0 600 0.0 1.3 4.7 289
10/10/2019 13:30 16.9 46 627.1 600 0.0 1.7 6.0 309
10/10/2019 13:40 17.0 45 610.9 600 0.0 2.1 7.4 298
10/10/2019 13:50 17.2 44 594.4 600 0.0 1.3 4.7 282
10/10/2019 14:00 17.3 44 564.4 600 0.0 2.1 7.5 278
10/10/2019 14:10 17.0 46 552.0 600 0.0 2.1 7.7 317
10/10/2019 14:20 17.2 46 531.4 600 0.0 1.8 6.4 301
10/10/2019 14:30 17.3 46 508.2 600 0.0 1.6 5.9 310
10/10/2019 14:40 17.4 48 485.5 600 0.0 1.7 6.3 300
10/10/2019 14:50 17.0 50 458.2 600 0.0 2.3 8.2 312
10/10/2019 15:00 17.2 52 431.1 600 0.0 1.9 6.7 302
10/10/2019 15:10 16.8 55 402.1 600 0.0 2.2 8.0 311
10/10/2019 15:20 16.6 57 372.6 600 0.0 1.8 6.6 300
10/10/2019 15:30 16.7 57 341.9 600 0.0 1.7 6.0 289
10/10/2019 15:40 16.6 59 311.4 600 0.0 2.0 7.3 277
10/10/2019 15:50 16.2 61 280.2 600 0.0 1.4 4.9 292
10/10/2019 16:00 15.9 62 250.0 600 0.0 1.6 5.7 276
10/10/2019 16:10 16.0 62 218.6 600 0.0 1.3 4.8 275
10/10/2019 16:20 15.6 63 186.4 600 0.0 1.6 5.8 263
10/10/2019 16:30 15.6 63 156.7 600 0.0 1.4 5.2 271
10/10/2019 16:40 14.9 65 129.1 600 0.0 1.2 4.3 270
10/10/2019 16:50 14.1 69 92.2 546 0.0 1.2 4.3 264
10/10/2019 17:00 13.3 71 61.4 452 0.0 1.0 3.7 239
10/10/2019 17:10 12.3 75 19.7 0 0.0 1.0 3.5 211
10/10/2019 17:20 11.3 79 4.9 0 0.0 0.4 1.4 203
10/10/2019 17:30 10.3 81 0.0 0 0.0 0.4 1.3 209
10/10/2019 17:40 9.3 83 0.0 0 0.0 0.0 0.0 0
10/10/2019 17:50 8.3 84 0.0 0 0.0 0.0 0.0 0
10/10/2019 18:00 7.3 87 0.0 0 0.0 0.4 1.3 79
10/10/2019 18:10 6.5 89 0.0 0 0.0 0.1 0.5 54
10/10/2019 18:20 5.9 91 0.0 0 0.0 0.6 2.2 66
10/10/2019 18:30 5.8 92 0.0 0 0.0 0.6 2.2 80
10/10/2019 18:40 5.3 92 0.0 0 0.0 0.4 1.4 88
10/10/2019 18:50 5.2 93 0.0 0 0.0 0.8 2.9 66
10/10/2019 19:00 4.7 93 0.0 0 0.0 0.7 2.5 110
10/10/2019 19:10 4.5 93 0.0 0 0.0 0.8 2.9 82
10/10/2019 19:20 4.2 93 0.0 0 0.0 0.7 2.4 100
10/10/2019 19:30 3.8 92 0.0 0 0.0 0.6 2.1 80
10/10/2019 19:40 3.5 93 0.0 0 0.0 0.6 2.0 83
10/10/2019 19:50 3.3 93 0.0 0 0.0 0.7 2.4 62
10/10/2019 20:00 3.0 93 0.0 0 0.0 0.2 0.7 214
10/10/2019 20:10 2.6 93 0.0 0 0.0 0.0 0.1 77
10/10/2019 20:20 2.5 94 0.0 0 0.0 0.6 2.3 67
10/10/2019 20:30 3.0 95 0.0 0 0.0 1.4 5.1 72
10/10/2019 20:40 3.5 92 0.0 0 0.0 0.8 3.0 105
10/10/2019 20:50 3.0 92 0.0 0 0.0 0.2 0.7 105
10/10/2019 21:00 3.0 93 0.0 0 0.0 0.6 2.1 99
10/10/2019 21:10 2.8 93 0.0 0 0.0 0.5 1.8 112
10/10/2019 21:20 2.7 93 0.0 0 0.0 0.1 0.4 119
10/10/2019 21:30 2.6 93 0.0 0 0.0 0.4 1.3 58
10/10/2019 21:40 2.6 94 0.0 0 0.0 0.3 0.9 91
10/10/2019 21:50 2.5 94 0.0 0 0.0 0.3 1.1 106
10/10/2019 22:00 2.5 95 0.0 0 0.0 0.5 1.9 94
10/10/2019 22:10 2.4 94 0.0 0 0.0 0.1 0.5 140
10/10/2019 22:20 2.5 95 0.0 0 0.0 0.4 1.3 42
10/10/2019 22:30 2.6 94 0.0 0 0.0 0.6 2.0 67
10/10/2019 22:40 2.3 94 0.0 0 0.0 0.6 2.1 74
10/10/2019 22:50 2.1 94 0.0 0 0.0 0.6 2.1 84
10/10/2019 23:00 1.8 94 0.0 0 0.0 0.2 0.7 91
10/10/2019 23:10 2.0 95 0.0 0 0.0 0.3 0.9 99
10/10/2019 23:20 2.0 95 0.0 0 0.0 0.4 1.5 108
10/10/2019 23:30 2.1 96 0.0 0 0.0 0.2 0.8 105
10/10/2019 23:40 2.3 95 0.0 0 0.0 0.1 0.5 54
10/10/2019 23:50 2.1 95 0.0 0 0.0 0.3 0.9 63
Anterior Página 1 de 1 Siguiente

NOTA: Tipo de datos según el color:
   - Valores diarios o 10 minutos correctos
   - Valores diarios calculados a partir de un número de datos 10 minutos menor que 144 y mayor que 120, o de un número de datos semihorarios menor que 48 y mayor que 40 (caso de las estaciones de Riegos de Navarra y del MARM)
   - Valores diez minutos estimados


Contacto        Enlaces        Aviso legal